createdAt,value
2017-05-10T00:48:38.772Z,72927
2017-05-10T00:48:48.871Z,72928
2017-05-10T00:48:58.974Z,72925
2017-05-10T00:49:08.789Z,72918
2017-05-10T00:49:18.600Z,72924
2017-05-10T00:49:28.723Z,72926
2017-05-10T00:49:38.822Z,72934
2017-05-10T00:49:48.922Z,72933
2017-05-10T00:49:58.731Z,72936
2017-05-10T00:50:08.827Z,72934
2017-05-10T00:50:18.342Z,72933
2017-05-10T00:50:28.431Z,72933
2017-05-10T00:50:37.963Z,72928
2017-05-10T00:50:47.767Z,72934
2017-05-10T00:50:57.862Z,72934
2017-05-10T00:51:07.951Z,72931
2017-05-10T00:51:18.036Z,72928
2017-05-10T00:51:28.125Z,72932
2017-05-10T00:51:38.221Z,72924
2017-05-10T00:51:48.315Z,72922
2017-05-10T00:51:58.120Z,72916
2017-05-10T00:52:08.217Z,72918
2017-05-10T00:52:18.369Z,72932
2017-05-10T00:52:28.462Z,72928
2017-05-10T00:52:38.268Z,72928
2017-05-10T00:52:48.368Z,72929
2017-05-10T00:52:58.460Z,72928
2017-05-10T00:53:08.549Z,72927
2017-05-10T00:53:18.647Z,72922
2017-05-10T00:53:28.757Z,72919
2017-05-10T00:53:38.860Z,72917
2017-05-10T00:53:48.954Z,72916
2017-05-10T00:53:58.766Z,72921
2017-05-10T00:54:08.577Z,72929
2017-05-10T00:54:18.711Z,72933
2017-05-10T00:54:28.809Z,72936
2017-05-10T00:54:38.912Z,72933
2017-05-10T00:54:48.714Z,72933
2017-05-10T00:54:58.807Z,72928
2017-05-10T00:55:08.619Z,72928
2017-05-10T00:55:18.423Z,72923
2017-05-10T00:55:28.520Z,72918
2017-05-10T00:55:38.325Z,72914
2017-05-10T00:55:48.136Z,72924
2017-05-10T00:55:58.228Z,72931
2017-05-10T00:56:08.035Z,72930
2017-05-10T00:56:17.873Z,72926
2017-05-10T00:56:27.964Z,72927
2017-05-10T00:56:37.773Z,72928
2017-05-10T00:56:47.869Z,72928
2017-05-10T00:56:57.964Z,72921
2017-05-10T00:57:08.057Z,72926
2017-05-10T00:57:17.574Z,72914
2017-05-10T00:57:27.671Z,72918
2017-05-10T00:57:37.479Z,72915
2017-05-10T00:57:47.577Z,72920
2017-05-10T00:57:57.379Z,72917
2017-05-10T00:58:07.473Z,72926
2017-05-10T00:58:17.605Z,72927
2017-05-10T00:58:27.690Z,72935
2017-05-10T00:58:37.779Z,72923
2017-05-10T00:58:47.911Z,72924
2017-05-10T00:58:58.007Z,72924
2017-05-10T00:59:08.100Z,72917
2017-05-10T00:59:18.200Z,72919
2017-05-10T00:59:28.292Z,72920
2017-05-10T00:59:38.094Z,72919
2017-05-10T00:59:47.604Z,72919
2017-05-10T00:59:57.730Z,72919
2017-05-10T01:00:07.826Z,72918
2017-05-10T01:00:17.629Z,72920
2017-05-10T01:00:27.723Z,72924
2017-05-10T01:00:37.818Z,72926
2017-05-10T01:00:47.625Z,72929
2017-05-10T01:00:57.724Z,72930
2017-05-10T01:01:07.815Z,72929
2017-05-10T01:01:17.910Z,72921
2017-05-10T01:01:28.001Z,72920
2017-05-10T01:01:38.086Z,72918
2017-05-10T01:01:48.171Z,72919
2017-05-10T01:01:58.263Z,72917
2017-05-10T01:02:08.361Z,72912
2017-05-10T01:02:18.458Z,72908
2017-05-10T01:02:28.260Z,72911
2017-05-10T01:02:38.066Z,72913
2017-05-10T01:02:47.867Z,72919
2017-05-10T01:02:57.961Z,72921
2017-05-10T01:03:08.059Z,72923
2017-05-10T01:03:17.576Z,72920
2017-05-10T01:03:27.669Z,72924
2017-05-10T01:03:37.761Z,72921
2017-05-10T01:03:47.573Z,72921
2017-05-10T01:03:57.665Z,72917
2017-05-10T01:04:07.468Z,72915
2017-05-10T01:04:17.567Z,72916
2017-05-10T01:04:27.666Z,72913
2017-05-10T01:04:37.805Z,72912
2017-05-10T01:04:47.893Z,72915
2017-05-10T01:04:57.982Z,72920
2017-05-10T01:05:07.787Z,72921
2017-05-10T01:05:17.875Z,72922
2017-05-10T01:05:27.964Z,72917
2017-05-10T01:05:38.063Z,72915
2017-05-10T01:05:47.868Z,72914
2017-05-10T01:05:57.965Z,72915
2017-05-10T01:06:07.774Z,72917
2017-05-10T01:06:17.577Z,72916
2017-05-10T01:06:27.668Z,72912
2017-05-10T01:06:37.759Z,72914
2017-05-10T01:06:47.852Z,72916
2017-05-10T01:06:57.942Z,72914
2017-05-10T01:07:07.741Z,72907
2017-05-10T01:07:17.546Z,72912
2017-05-10T01:07:27.632Z,72915
2017-05-10T01:07:37.734Z,72916
2017-05-10T01:07:47.834Z,72915
2017-05-10T01:07:57.924Z,72914
2017-05-10T01:08:08.019Z,72914
2017-05-10T01:08:18.110Z,72916
2017-05-10T01:08:28.205Z,72910
2017-05-10T01:08:38.301Z,72914
2017-05-10T01:08:48.394Z,72918
2017-05-10T01:08:58.488Z,72916
2017-05-10T01:09:08.585Z,72916
2017-05-10T01:09:18.103Z,72915
2017-05-10T01:09:28.201Z,72913
2017-05-10T01:09:38.295Z,72909
2017-05-10T01:09:48.382Z,72907
2017-05-10T01:09:58.475Z,72909
2017-05-10T01:10:08.275Z,72909
2017-05-10T01:10:18.085Z,72913
2017-05-10T01:10:28.174Z,72918
2017-05-10T01:10:38.269Z,72917
2017-05-10T01:10:48.075Z,72916
2017-05-10T01:10:57.917Z,72913
2017-05-10T01:11:08.005Z,72916
2017-05-10T01:11:17.522Z,72909
2017-05-10T01:11:27.615Z,72912
2017-05-10T01:11:37.710Z,72913
2017-05-10T01:11:47.797Z,72913
2017-05-10T01:11:57.887Z,72910
2017-05-10T01:12:07.696Z,72910
2017-05-10T01:12:17.789Z,72911
2017-05-10T01:12:27.881Z,72915
2017-05-10T01:12:37.973Z,72917
2017-05-10T01:12:47.778Z,72916
2017-05-10T01:12:57.868Z,72911
2017-05-10T01:13:07.969Z,72913
2017-05-10T01:13:17.778Z,72919
2017-05-10T01:13:27.881Z,72915
2017-05-10T01:13:37.976Z,72915
2017-05-10T01:13:47.787Z,72918
2017-05-10T01:13:57.596Z,72916
2017-05-10T01:14:07.403Z,72916
2017-05-10T01:14:17.211Z,72917
2017-05-10T01:14:27.312Z,72918
2017-05-10T01:14:37.122Z,72913
2017-05-10T01:14:46.924Z,72909
2017-05-10T01:14:57.015Z,72904
2017-05-10T01:15:07.105Z,72913
2017-05-10T01:15:16.902Z,72911
2017-05-10T01:15:26.993Z,72912
2017-05-10T01:15:37.094Z,72911
2017-05-10T01:15:47.187Z,72914
2017-05-10T01:15:57.291Z,72921
2017-05-10T01:16:07.383Z,72916
2017-05-10T01:16:16.906Z,72914
2017-05-10T01:16:26.996Z,72911
2017-05-10T01:16:37.093Z,72913
2017-05-10T01:16:47.182Z,72913
2017-05-10T01:16:57.296Z,72915
2017-05-10T01:17:07.417Z,72918
2017-05-10T01:17:17.507Z,72910
2017-05-10T01:17:27.020Z,72913
2017-05-10T01:17:36.823Z,72919
2017-05-10T01:17:46.624Z,72917
2017-05-10T01:17:56.718Z,72913
2017-05-10T01:18:06.807Z,72911
2017-05-10T01:18:16.905Z,72906
2017-05-10T01:18:26.712Z,72911
2017-05-10T01:18:36.513Z,72912
2017-05-10T01:18:46.319Z,72912
2017-05-10T01:18:56.412Z,72913
2017-05-10T01:19:06.499Z,72913
2017-05-10T01:19:16.588Z,72908
2017-05-10T01:19:26.684Z,72910
2017-05-10T01:19:36.487Z,72910
2017-05-10T01:19:46.583Z,72904
2017-05-10T01:19:56.679Z,72904
2017-05-10T01:20:06.772Z,72901
2017-05-10T01:20:16.864Z,72900
2017-05-10T01:20:26.679Z,72904
2017-05-10T01:20:36.483Z,72905
2017-05-10T01:20:46.578Z,72901
2017-05-10T01:20:56.731Z,72906
2017-05-10T01:21:06.825Z,72904
2017-05-10T01:21:16.914Z,72906
2017-05-10T01:21:27.003Z,72903
2017-05-10T01:21:37.098Z,72903
2017-05-10T01:21:47.196Z,72905
2017-05-10T01:21:57.308Z,72906
2017-05-10T01:22:07.116Z,72908
2017-05-10T01:22:17.211Z,72904
2017-05-10T01:22:27.305Z,72901
2017-05-10T01:22:37.396Z,72905
2017-05-10T01:22:47.485Z,72899
2017-05-10T01:22:57.574Z,72898
2017-05-10T01:23:07.663Z,72903
2017-05-10T01:23:17.476Z,72898
2017-05-10T01:23:27.572Z,72897
2017-05-10T01:23:37.663Z,72899
2017-05-10T01:23:47.754Z,72898
2017-05-10T01:23:57.275Z,72905
2017-05-10T01:24:07.366Z,72908
2017-05-10T01:24:17.463Z,72907
2017-05-10T01:24:27.562Z,72901
2017-05-10T01:24:37.659Z,72899
2017-05-10T01:24:47.469Z,72899
2017-05-10T01:24:57.277Z,72889
2017-05-10T01:25:07.093Z,72903
2017-05-10T01:25:17.179Z,72910
2017-05-10T01:25:27.278Z,72911
2017-05-10T01:25:37.366Z,72912
2017-05-10T01:25:47.459Z,72910
2017-05-10T01:25:56.975Z,72906
2017-05-10T01:26:06.779Z,72902
2017-05-10T01:26:16.579Z,72903
2017-05-10T01:26:26.674Z,72903
2017-05-10T01:26:36.764Z,72902
2017-05-10T01:26:46.854Z,72900
2017-05-10T01:26:56.941Z,72911
2017-05-10T01:27:07.035Z,72912
2017-05-10T01:27:16.840Z,72911
2017-05-10T01:27:26.936Z,72908
2017-05-10T01:27:37.030Z,72904
2017-05-10T01:27:46.840Z,72903
2017-05-10T01:27:56.648Z,72902
2017-05-10T01:28:06.454Z,72907
2017-05-10T01:28:16.551Z,72907
2017-05-10T01:28:26.653Z,72911
2017-05-10T01:28:36.746Z,72910
2017-05-10T01:28:46.843Z,72902
2017-05-10T01:28:56.649Z,72905
2017-05-10T01:29:06.741Z,72905
2017-05-10T01:29:16.832Z,72899
2017-05-10T01:29:26.934Z,72904
2017-05-10T01:29:36.738Z,72909
2017-05-10T01:29:46.829Z,72907
2017-05-10T01:29:56.345Z,72906
2017-05-10T01:30:06.433Z,72906
2017-05-10T01:30:15.954Z,72907
2017-05-10T01:30:26.042Z,72905
2017-05-10T01:30:36.135Z,72911
2017-05-10T01:30:46.224Z,72911
2017-05-10T01:30:56.323Z,72913
2017-05-10T01:31:06.419Z,72904
2017-05-10T01:31:16.509Z,72910
2017-05-10T01:31:26.595Z,72909
2017-05-10T01:31:36.396Z,72907
2017-05-10T01:31:46.482Z,72905
2017-05-10T01:31:56.581Z,72905
2017-05-10T01:32:06.386Z,72901
2017-05-10T01:32:16.190Z,72902
2017-05-10T01:32:26.283Z,72906
2017-05-10T01:32:36.382Z,72912
2017-05-10T01:32:45.899Z,72913
2017-05-10T01:32:55.993Z,72915
2017-05-10T01:33:20.691Z,72914
2017-05-10T01:33:30.786Z,72912
2017-05-10T01:33:40.825Z,72913
2017-05-10T01:33:50.918Z,72911
2017-05-10T01:34:01.015Z,72906
2017-05-10T01:34:11.109Z,72908
2017-05-10T01:34:21.199Z,72905
2017-05-10T01:34:31.297Z,72909
2017-05-10T01:34:41.392Z,72911
2017-05-10T01:34:51.520Z,72909
2017-05-10T01:35:01.341Z,72907
2017-05-10T01:35:11.430Z,72908
2017-05-10T01:35:21.517Z,72907
2017-05-10T01:35:31.607Z,72912
2017-05-10T01:35:41.698Z,72908
2017-05-10T01:35:51.791Z,72905
2017-05-10T01:36:01.882Z,72904
2017-05-10T01:36:11.978Z,72904
2017-05-10T01:36:22.075Z,72902
2017-05-10T01:36:32.161Z,72909
2017-05-10T01:36:41.960Z,72911
2017-05-10T01:36:52.063Z,72908
2017-05-10T01:37:02.157Z,72907
2017-05-10T01:37:11.964Z,72908
2017-05-10T01:37:21.769Z,72906
2017-05-10T01:37:31.861Z,72903
2017-05-10T01:37:41.961Z,72902
2017-05-10T01:37:52.049Z,72899
2017-05-10T01:38:02.142Z,72902
2017-05-10T01:38:12.239Z,72908
2017-05-10T01:38:22.335Z,72908
2017-05-10T01:38:32.146Z,72906
2017-05-10T01:38:42.253Z,72906
2017-05-10T01:38:52.354Z,72907
2017-05-10T01:39:02.441Z,72913
2017-05-10T01:39:12.536Z,72911
2017-05-10T01:39:22.628Z,72909
2017-05-10T01:41:35.154Z,72904
2017-05-10T01:41:45.252Z,72898
2017-05-10T01:41:55.380Z,72891
2017-05-10T01:42:05.473Z,72898
2017-05-10T01:42:15.566Z,72901
2017-05-10T01:42:25.373Z,72907
2017-05-10T01:42:35.468Z,72904
2017-05-10T01:42:45.561Z,72906
2017-05-10T01:42:55.661Z,72911
2017-05-10T01:43:05.754Z,72913
2017-05-10T01:43:15.847Z,72910
2017-05-10T01:43:25.655Z,72913
2017-05-10T01:43:35.755Z,72907
2017-05-10T01:43:45.566Z,72902
2017-05-10T01:43:55.661Z,72901
2017-05-10T01:44:05.799Z,72903
2017-05-10T01:44:15.607Z,72902
2017-05-10T01:44:25.697Z,72904
2017-05-10T01:44:35.784Z,72906
2017-05-10T01:44:45.894Z,72907
2017-05-10T01:44:55.995Z,72900
2017-05-10T01:45:05.565Z,72903
2017-05-10T01:45:15.316Z,72900
2017-05-10T01:45:25.409Z,72900
2017-05-10T01:45:35.502Z,72907
2017-05-10T01:45:45.023Z,72908
2017-05-10T01:45:55.115Z,72909
2017-05-10T01:46:05.203Z,72912
2017-05-10T01:46:15.011Z,72912
2017-05-10T01:46:25.100Z,72903
2017-05-10T01:46:35.196Z,72906
2017-05-10T01:46:45.000Z,72899
2017-05-10T01:46:55.089Z,72902
2017-05-10T01:47:04.893Z,72902
2017-05-10T01:47:14.987Z,72899
2017-05-10T01:47:25.076Z,72907
2017-05-10T01:47:34.887Z,72902
2017-05-10T01:47:44.985Z,72901
2017-05-10T01:47:55.087Z,72910
2017-05-10T01:49:42.625Z,72911
2017-05-10T01:49:52.437Z,72907
2017-05-10T01:50:02.539Z,72908
2017-05-10T01:50:12.628Z,72909
2017-05-10T01:50:22.430Z,72905
2017-05-10T01:50:32.238Z,72904
2017-05-10T01:50:42.329Z,72910
2017-05-10T01:50:52.424Z,72906
2017-05-10T01:51:02.523Z,72905
2017-05-10T01:51:12.612Z,72907
2017-05-10T01:51:22.416Z,72912
2017-05-10T01:51:32.221Z,72915
2017-05-10T01:51:42.310Z,72915
2017-05-10T01:51:52.117Z,72912
2017-05-10T01:52:02.215Z,72907
2017-05-10T01:52:12.310Z,72906
2017-05-10T01:52:36.433Z,72908
2017-05-10T01:52:46.242Z,72902
2017-05-10T01:52:56.334Z,72896
2017-05-10T01:53:06.425Z,72902
2017-05-10T01:53:16.521Z,72903
2017-05-10T01:53:26.613Z,72901
2017-05-10T01:53:36.419Z,72896
2017-05-10T01:53:45.365Z,72903
2017-05-10T01:55:32.909Z,72908
2017-05-10T01:55:43.003Z,72907
2017-05-10T01:55:52.809Z,72903
2017-05-10T01:56:02.900Z,72905
2017-05-10T01:56:12.993Z,72895
2017-05-10T01:56:22.508Z,72893
2017-05-10T01:56:32.309Z,72902
2017-05-10T01:56:42.401Z,72898
2017-05-10T01:56:52.496Z,72904
2017-05-10T01:57:02.586Z,72906
2017-05-10T01:57:12.677Z,72903
2017-05-10T01:57:22.219Z,72899
2017-05-10T01:57:32.319Z,72901
2017-05-10T01:57:57.023Z,72900
2017-05-10T01:58:36.333Z,72892
2017-05-10T01:58:46.142Z,72892
2017-05-10T01:58:56.231Z,72894
2017-05-10T01:59:06.326Z,72897
2017-05-10T01:59:16.418Z,72900
2017-05-10T01:59:26.519Z,72900
2017-05-10T01:59:36.619Z,72903
2017-05-10T01:59:46.709Z,72907
2017-05-10T01:59:56.806Z,72906
2017-05-10T02:00:06.905Z,72905
2017-05-10T02:00:16.721Z,72895
2017-05-10T02:00:26.812Z,72893
2017-05-10T02:00:36.661Z,72885
2017-05-10T02:00:46.750Z,72902
2017-05-10T02:00:56.841Z,72900
2017-05-10T02:01:21.254Z,72901
2017-05-10T02:01:31.058Z,72900
2017-05-10T02:01:41.150Z,72897
2017-05-10T02:01:51.237Z,72900
2017-05-10T02:02:01.330Z,72900
2017-05-10T02:02:11.149Z,72902
2017-05-10T02:02:21.248Z,72903
2017-05-10T02:02:31.347Z,72899
2017-05-10T02:02:41.160Z,72894
2017-05-10T02:02:50.977Z,72891
2017-05-10T02:03:00.788Z,72895
2017-05-10T02:03:10.885Z,72906
2017-05-10T02:03:20.982Z,72896
2017-05-10T02:03:30.790Z,72899
2017-05-10T02:03:40.881Z,72896
2017-05-10T02:03:50.977Z,72891
2017-05-10T02:04:00.782Z,72891
2017-05-10T02:04:10.890Z,72889
2017-05-10T02:04:20.987Z,72895
2017-05-10T02:04:45.699Z,72906
2017-05-10T02:04:55.793Z,72903
2017-05-10T02:05:05.891Z,72904
2017-05-10T02:05:15.695Z,72900
2017-05-10T02:05:25.790Z,72896
2017-05-10T02:05:35.882Z,72895
2017-05-10T02:05:45.972Z,72894
2017-05-10T02:05:56.062Z,72896
2017-05-10T02:06:06.156Z,72897
2017-05-10T02:06:15.674Z,72897
2017-05-10T02:06:25.769Z,72890
2017-05-10T02:06:35.868Z,72891
2017-05-10T02:06:45.681Z,72890
2017-05-10T02:06:55.770Z,72890
2017-05-10T02:07:05.585Z,72904
2017-05-10T02:07:15.428Z,72902
2017-05-10T02:07:25.521Z,72900
2017-05-10T02:07:35.617Z,72900
2017-05-10T02:07:45.426Z,72898
2017-05-10T02:07:55.228Z,72898
2017-05-10T02:08:05.321Z,72898
2017-05-10T02:08:15.410Z,72898
2017-05-10T02:08:25.506Z,72893
2017-05-10T02:08:35.603Z,72893
2017-05-10T02:08:45.410Z,72898
2017-05-10T02:08:55.510Z,72900
2017-05-10T02:09:05.611Z,72901
2017-05-10T02:09:15.703Z,72897
2017-05-10T02:09:25.518Z,72898
2017-05-10T02:09:35.613Z,72900
2017-05-10T02:09:45.708Z,72901
2017-05-10T02:09:55.798Z,72905
2017-05-10T02:10:05.905Z,72899
2017-05-10T02:12:18.146Z,72891
2017-05-10T02:12:28.234Z,72891
2017-05-10T02:12:38.325Z,72889
2017-05-10T02:12:48.419Z,72888
2017-05-10T02:12:58.517Z,72889
2017-05-10T02:13:08.318Z,72899
2017-05-10T02:13:18.131Z,72900
2017-05-10T02:13:28.227Z,72896
2017-05-10T02:13:38.037Z,72896
2017-05-10T02:13:47.850Z,72895
2017-05-10T02:13:57.940Z,72896
2017-05-10T02:14:08.031Z,72890
2017-05-10T02:14:17.550Z,72890
2017-05-10T02:14:27.359Z,72886
2017-05-10T02:14:37.453Z,72882
2017-05-10T02:14:47.543Z,72881
2017-05-10T02:14:57.638Z,72880
2017-05-10T02:15:07.744Z,72884
2017-05-10T02:15:17.551Z,72883
2017-05-10T02:15:27.644Z,72887
2017-05-10T02:15:52.344Z,72894
2017-05-10T02:16:02.441Z,72894
2017-05-10T02:16:12.249Z,72896
2017-05-10T02:16:22.343Z,72890
2017-05-10T02:16:32.439Z,72886
2017-05-10T02:16:42.242Z,72888
2017-05-10T02:16:52.337Z,72886
2017-05-10T02:17:02.477Z,72888
2017-05-10T02:17:12.288Z,72886
2017-05-10T02:17:22.384Z,72884
2017-05-10T02:17:32.473Z,72884
2017-05-10T02:17:42.571Z,72887
2017-05-10T02:17:52.373Z,72883
2017-05-10T02:18:02.472Z,72881
2017-05-10T02:18:12.560Z,72883
2017-05-10T02:18:22.400Z,72881
2017-05-10T02:18:32.505Z,72887
2017-05-10T02:18:42.596Z,72890
2017-05-10T02:18:52.688Z,72885
2017-05-10T02:19:02.782Z,72886
2017-05-10T02:19:12.592Z,72885
2017-05-10T02:19:22.687Z,72886
2017-05-10T02:19:32.816Z,72881
2017-05-10T02:19:42.912Z,72882
2017-05-10T02:19:52.720Z,72879
2017-05-10T02:20:17.422Z,72887
2017-05-10T02:20:27.514Z,72887
2017-05-10T02:20:37.611Z,72891
2017-05-10T02:20:47.413Z,72888
2017-05-10T02:20:57.226Z,72888
2017-05-10T02:21:07.331Z,72885
2017-05-10T02:21:17.427Z,72883
2017-05-10T02:21:27.545Z,72885
2017-05-10T02:21:37.639Z,72882
2017-05-10T02:21:47.734Z,72882
2017-05-10T02:21:57.541Z,72881
2017-05-10T02:22:07.640Z,72877
2017-05-10T02:22:17.443Z,72879
2017-05-10T02:22:27.535Z,72881
2017-05-10T02:22:37.636Z,72885
2017-05-10T02:22:47.729Z,72891
2017-05-10T02:22:57.588Z,72889
2017-05-10T02:23:07.678Z,72880
2017-05-10T02:23:17.481Z,72882
2017-05-10T02:23:27.611Z,72881
2017-05-10T02:23:37.705Z,72875
2017-05-10T02:23:47.509Z,72875
2017-05-10T02:23:57.617Z,72878
2017-05-10T02:24:07.711Z,72881
2017-05-10T02:24:17.800Z,72881
2017-05-10T02:24:27.889Z,72878
2017-05-10T02:24:37.698Z,72877
2017-05-10T02:24:47.498Z,72882
2017-05-10T02:24:57.589Z,72889
2017-05-10T02:25:07.684Z,72890
2017-05-10T02:25:17.488Z,72889
2017-05-10T02:25:27.293Z,72885
2017-05-10T02:25:37.381Z,72884
2017-05-10T02:25:47.526Z,72881
2017-05-10T02:25:57.625Z,72879
2017-05-10T02:26:07.719Z,72879
2017-05-10T02:26:17.238Z,72881
2017-05-10T02:26:27.044Z,72883
2017-05-10T02:26:36.844Z,72888
2017-05-10T02:26:46.646Z,72888
2017-05-10T02:26:56.734Z,72888
2017-05-10T02:27:06.823Z,72885
2017-05-10T02:27:31.522Z,72885
2017-05-10T02:27:41.340Z,72883
2017-05-10T02:27:51.159Z,72882
2017-05-10T02:28:00.967Z,72885
2017-05-10T02:28:10.489Z,72884
2017-05-10T02:28:20.576Z,72887
2017-05-10T02:28:30.387Z,72889
2017-05-10T02:28:40.489Z,72886
2017-05-10T02:28:50.302Z,72891
2017-05-10T02:29:00.114Z,72887
2017-05-10T02:29:10.242Z,72889
2017-05-10T02:29:20.334Z,72883
2017-05-10T02:29:29.855Z,72880
2017-05-10T02:29:39.948Z,72880
2017-05-10T02:29:50.037Z,72883
2017-05-10T02:30:00.132Z,72885
2017-05-10T02:30:10.229Z,72880
2017-05-10T02:30:20.319Z,72877
2017-05-10T02:30:30.423Z,72879
2017-05-10T02:30:40.516Z,72883
2017-05-10T02:30:50.319Z,72888
2017-05-10T02:31:00.419Z,72883
2017-05-10T02:31:10.224Z,72882
2017-05-10T02:31:20.313Z,72878
2017-05-10T02:31:30.418Z,72874
2017-05-10T02:31:40.511Z,72870
2017-05-10T02:31:50.329Z,72868
2017-05-10T02:32:00.134Z,72864
2017-05-10T02:32:10.224Z,72873
2017-05-10T02:32:20.056Z,72877
2017-05-10T02:32:30.144Z,72878
2017-05-10T02:32:40.233Z,72883
2017-05-10T02:32:50.033Z,72880
2017-05-10T02:33:00.126Z,72881
2017-05-10T02:33:10.222Z,72874
2017-05-10T02:33:20.020Z,72866
2017-05-10T02:33:30.114Z,72876
2017-05-10T02:33:40.209Z,72877
2017-05-10T02:33:50.312Z,72876
2017-05-10T02:34:00.402Z,72879
2017-05-10T02:34:10.492Z,72882
2017-05-10T02:34:20.304Z,72884
2017-05-10T02:34:30.395Z,72881
2017-05-10T02:34:40.519Z,72881
2017-05-10T02:34:50.616Z,72877
2017-05-10T02:35:00.706Z,72875
2017-05-10T02:35:10.505Z,72882
2017-05-10T02:35:20.593Z,72878
2017-05-10T02:35:30.686Z,72882
2017-05-10T02:35:40.782Z,72877
2017-05-10T02:35:50.876Z,72877
2017-05-10T02:36:00.968Z,72878
2017-05-10T02:36:11.058Z,72878
2017-05-10T02:36:20.862Z,72880
2017-05-10T02:36:30.963Z,72876
2017-05-10T02:36:41.061Z,72882
2017-05-10T02:36:51.158Z,72883
2017-05-10T02:37:01.249Z,72882
2017-05-10T02:37:11.350Z,72884
2017-05-10T02:37:21.443Z,72880
2017-05-10T02:37:31.536Z,72880
2017-05-10T02:37:41.629Z,72874
2017-05-10T02:37:51.724Z,72878
2017-05-10T02:38:01.813Z,72876
2017-05-10T02:38:11.325Z,72872
2017-05-10T02:38:21.123Z,72875
2017-05-10T02:38:31.215Z,72874
2017-05-10T02:38:41.313Z,72871
2017-05-10T02:38:51.404Z,72872
2017-05-10T02:39:01.504Z,72872
2017-05-10T02:39:11.596Z,72870
2017-05-10T02:39:21.688Z,72876
2017-05-10T02:39:31.774Z,72879
2017-05-10T02:39:41.871Z,72876
2017-05-10T02:39:51.965Z,72875
2017-05-10T02:40:01.803Z,72873
2017-05-10T02:40:11.891Z,72875
2017-05-10T02:40:21.699Z,72876
2017-05-10T02:40:31.793Z,72875
2017-05-10T02:40:41.882Z,72879
2017-05-10T02:40:51.979Z,72879
2017-05-10T02:41:02.076Z,72875
2017-05-10T02:41:12.173Z,72878
2017-05-10T02:41:21.690Z,72877
2017-05-10T02:42:25.696Z,72881
2017-05-10T02:42:35.789Z,72876
2017-05-10T02:42:45.593Z,72878
2017-05-10T02:42:55.697Z,72876
2017-05-10T02:43:05.851Z,72873
2017-05-10T02:43:15.948Z,72876
2017-05-10T02:43:26.049Z,72878
2017-05-10T02:43:36.144Z,72877
2017-05-10T02:43:46.238Z,72877
2017-05-10T02:43:56.339Z,72878
2017-05-10T02:44:06.433Z,72868
2017-05-10T02:44:16.246Z,72872
2017-05-10T02:44:26.341Z,72873
2017-05-10T02:44:36.432Z,72874
2017-05-10T02:45:01.134Z,72869
2017-05-10T02:45:11.230Z,72868
2017-05-10T02:45:21.319Z,72865
2017-05-10T02:45:31.411Z,72871
2017-05-10T02:45:41.216Z,72871
2017-05-10T02:45:51.020Z,72870
2017-05-10T02:46:01.108Z,72866
2017-05-10T02:46:11.200Z,72869
2017-05-10T02:46:21.004Z,72870
2017-05-10T02:46:31.091Z,72873
2017-05-10T02:46:40.887Z,72869
2017-05-10T02:46:50.403Z,72868
2017-05-10T02:47:00.490Z,72863
2017-05-10T02:47:10.582Z,72860
2017-05-10T02:47:20.676Z,72863
2017-05-10T02:47:30.769Z,72864
2017-05-10T02:47:40.861Z,72869
2017-05-10T02:47:50.963Z,72872
2017-05-10T02:48:01.061Z,72872
2017-05-10T02:48:11.160Z,72862
2017-05-10T02:48:20.963Z,72865
2017-05-10T02:48:31.065Z,72861
2017-05-10T02:48:41.163Z,72861
2017-05-10T02:48:50.974Z,72861
2017-05-10T02:49:01.069Z,72863
2017-05-10T02:49:11.162Z,72869
2017-05-10T02:49:20.977Z,72868
2017-05-10T02:49:31.078Z,72869
2017-05-10T02:49:41.171Z,72872
2017-05-10T02:49:51.268Z,72878
2017-05-10T02:50:01.371Z,72876
2017-05-10T02:50:11.184Z,72871
2017-05-10T02:50:20.986Z,72871
2017-05-10T02:50:55.779Z,72866
2017-05-10T02:51:05.875Z,72864
2017-05-10T02:51:15.398Z,72864
2017-05-10T02:51:25.490Z,72868
2017-05-10T02:51:35.586Z,72865
2017-05-10T02:51:45.677Z,72868
2017-05-10T02:51:55.733Z,72873
2017-05-10T02:52:05.823Z,72868
2017-05-10T02:52:15.339Z,72873
2017-05-10T02:52:25.145Z,72870
2017-05-10T02:52:35.237Z,72870
2017-05-10T02:52:45.043Z,72872
2017-05-10T02:52:55.138Z,72868
2017-05-10T02:53:05.228Z,72870
2017-05-10T02:53:15.322Z,72860
2017-05-10T02:53:25.412Z,72858
2017-05-10T02:53:35.509Z,72863
2017-05-10T02:53:45.310Z,72863
2017-05-10T02:53:55.407Z,72866
2017-05-10T02:54:05.504Z,72870
2017-05-10T02:54:15.307Z,72869
2017-05-10T02:54:25.405Z,72871
2017-05-10T02:54:35.499Z,72874
2017-05-10T02:54:45.312Z,72878
2017-05-10T02:54:55.129Z,72874
2017-05-10T02:55:44.244Z,72875
2017-05-10T02:55:54.335Z,72876
2017-05-10T02:56:04.423Z,72874
2017-05-10T02:56:14.244Z,72870
2017-05-10T02:56:24.337Z,72866
2017-05-10T02:56:34.434Z,72862
2017-05-10T02:56:44.524Z,72864
2017-05-10T02:56:54.652Z,72865
2017-05-10T02:57:04.746Z,72861
2017-05-10T02:57:14.548Z,72867
2017-05-10T02:57:24.359Z,72867
2017-05-10T02:57:34.450Z,72872
2017-05-10T02:57:44.549Z,72874
2017-05-10T02:57:54.643Z,72873
2017-05-10T02:58:04.766Z,72874
2017-05-10T02:58:14.573Z,72875
2017-05-10T02:58:24.668Z,72874
2017-05-10T02:58:34.477Z,72874
2017-05-10T02:58:44.571Z,72871
2017-05-10T02:58:54.663Z,72865
2017-05-10T02:59:04.474Z,72861
2017-05-10T02:59:14.563Z,72863
2017-05-10T02:59:24.371Z,72861
2017-05-10T02:59:34.464Z,72867
2017-05-10T02:59:43.928Z,72871
2017-05-10T02:59:54.019Z,72867
2017-05-10T03:00:04.110Z,72867
2017-05-10T03:00:13.913Z,72870
2017-05-10T03:00:24.003Z,72865
2017-05-10T03:00:34.097Z,72869
2017-05-10T03:00:43.906Z,72865
2017-05-10T03:00:53.706Z,72863
2017-05-10T03:01:03.803Z,72864
2017-05-10T03:01:13.608Z,72862
2017-05-10T03:01:23.693Z,72868
2017-05-10T03:01:33.503Z,72871
2017-05-10T03:01:43.599Z,72874
2017-05-10T03:01:53.398Z,72874
2017-05-10T03:02:03.488Z,72870
2017-05-10T03:02:13.002Z,72862
2017-05-10T03:02:37.703Z,72860
2017-05-10T03:02:47.504Z,72863
2017-05-10T03:02:57.315Z,72864
2017-05-10T03:03:07.411Z,72862
2017-05-10T03:03:17.509Z,72860
2017-05-10T03:03:27.608Z,72859
2017-05-10T03:03:37.702Z,72860
2017-05-10T03:03:47.498Z,72863
2017-05-10T03:04:11.910Z,72867
2017-05-10T03:04:22.005Z,72873
2017-05-10T03:04:32.105Z,72865
2017-05-10T03:04:42.198Z,72864
2017-05-10T03:04:52.291Z,72861
2017-05-10T03:05:41.689Z,72864
2017-05-10T03:05:51.491Z,72860
2017-05-10T03:06:01.578Z,72866
2017-05-10T03:06:11.667Z,72868
2017-05-10T03:06:21.471Z,72871
2017-05-10T03:06:31.563Z,72871
2017-05-10T03:06:41.408Z,72871
2017-05-10T03:06:51.219Z,72870
2017-05-10T03:07:01.308Z,72871
2017-05-10T03:07:11.399Z,72865
2017-05-10T03:07:21.203Z,72860
2017-05-10T03:07:31.293Z,72856
2017-05-10T03:07:41.398Z,72856
2017-05-10T03:07:51.495Z,72857
2017-05-10T03:08:01.592Z,72852
2017-05-10T03:08:11.391Z,72857
2017-05-10T03:08:36.092Z,72868
2017-05-10T03:09:15.395Z,72863
2017-05-10T03:09:25.212Z,72860
2017-05-10T03:09:35.301Z,72855
2017-05-10T03:09:45.410Z,72858
2017-05-10T03:09:55.216Z,72854
2017-05-10T03:10:05.312Z,72856
2017-05-10T03:10:15.112Z,72861
2017-05-10T03:12:02.943Z,72862
2017-05-10T03:12:12.182Z,72859
2017-05-10T03:12:22.279Z,72864
2017-05-10T03:12:32.087Z,72862
2017-05-10T03:12:41.898Z,72859